Time;durP1;ratioP1;P1;durP2;ratioP2;P2;SDS_P1;SDS_P2;PMS_P1;PMS_P2;Temp;Humidity;BMP_temperature;BMP_pressure;BME280_temperature;BME280_humidity;BME280_pressure;Samples;Min_cycle;Max_cycle;Signal;HPM_P1;HPM_P2
2023/04/19 19:10:08;;;;;;;14.07;6.93;;;;;;;;;;6110801;23;20065;-77
2023/04/19 19:12:34;;;;;;;10.68;6.90;;;;;;;;;;6067629;23;20097;-75
2023/04/19 19:15:00;;;;;;;11.90;6.45;;;;;;;;;;6067540;23;20037;-75
2023/04/19 19:17:30;;;;;;;10.40;7.00;;;;;;;;;;6068913;23;20089;-75
2023/04/19 19:19:56;;;;;;;20.60;7.13;;;;;;;;;;6022193;23;20301;-76
2023/04/19 19:22:22;;;;;;;19.02;6.20;;;;;;;;;;6095092;23;20022;-76
2023/04/19 19:24:48;;;;;;;11.93;7.20;;;;;;;;;;6044495;23;20014;-75
2023/04/19 19:27:14;;;;;;;12.65;6.25;;;;;;;;;;6067715;23;20023;-75
2023/04/19 19:29:43;;;;;;;12.90;6.80;;;;;;;;;;6066511;23;20021;-76
2023/04/19 19:32:09;;;;;;;11.88;6.90;;;;;;;;;;6065855;23;20397;-76
2023/04/19 19:34:35;;;;;;;15.98;6.82;;;;;;;;;;6093448;23;20049;-75
2023/04/19 19:37:04;;;;;;;9.80;6.43;;;;;;;;;;6068608;23;20014;-77
2023/04/19 19:39:34;;;;;;;12.68;6.75;;;;;;;;;;6068548;23;20479;-77
2023/04/19 19:42:03;;;;;;;8.38;6.25;;;;;;;;;;6066605;23;20014;-76
2023/04/19 19:44:29;;;;;;;10.63;7.10;;;;;;;;;;6042269;23;20018;-77
2023/04/19 19:46:55;;;;;;;12.30;6.47;;;;;;;;;;6093298;23;20011;-77
2023/04/19 19:49:21;;;;;;;11.65;6.95;;;;;;;;;;6043524;23;20022;-77
2023/04/19 19:51:47;;;;;;;14.63;6.47;;;;;;;;;;6093652;23;20149;-77
2023/04/19 19:54:13;;;;;;;11.93;6.82;;;;;;;;;;6096812;23;20021;-77
2023/04/19 19:56:39;;;;;;;11.75;6.15;;;;;;;;;;6060301;23;20038;-77
2023/04/19 19:59:05;;;;;;;13.73;6.13;;;;;;;;;;6089009;23;20022;-77
2023/04/19 20:01:34;;;;;;;9.70;6.32;;;;;;;;;;6068089;23;20026;-78
2023/04/19 20:04:00;;;;;;;13.88;7.40;;;;;;;;;;6090949;23;20046;-76
2023/04/19 20:06:26;;;;;;;7.50;6.20;;;;;;;;;;6088706;23;20014;-76
2023/04/19 20:08:52;;;;;;;10.77;6.75;;;;;;;;;;6047214;23;20026;-74
2023/04/19 20:11:19;;;;;;;11.20;7.05;;;;;;;;;;6109763;23;20035;-75
2023/04/19 20:13:45;;;;;;;13.43;7.50;;;;;;;;;;6153149;23;20036;-73
2023/04/19 20:16:11;;;;;;;11.55;6.53;;;;;;;;;;6152855;23;20009;-74
2023/04/19 20:18:37;;;;;;;11.05;6.60;;;;;;;;;;6152715;23;20014;-74
2023/04/19 20:21:03;;;;;;;12.63;6.78;;;;;;;;;;6153263;23;20037;-74
2023/04/19 20:23:29;;;;;;;11.10;6.90;;;;;;;;;;6153211;23;20160;-73
2023/04/19 20:25:56;;;;;;;9.85;6.25;;;;;;;;;;6153426;23;20581;-73
2023/04/19 20:28:22;;;;;;;16.60;7.28;;;;;;;;;;6152948;23;20068;-73
2023/04/19 20:30:48;;;;;;;14.45;5.80;;;;;;;;;;6153037;23;20017;-73
2023/04/19 20:33:14;;;;;;;9.95;6.82;;;;;;;;;;6153142;23;20016;-73
2023/04/19 20:35:43;;;;;;;14.35;8.02;;;;;;;;;;6152189;23;20017;-74
2023/04/19 20:38:09;;;;;;;12.32;6.93;;;;;;;;;;6152872;23;20009;-73
2023/04/19 20:40:35;;;;;;;12.50;6.55;;;;;;;;;;6153339;23;20470;-74
2023/04/19 20:43:01;;;;;;;13.32;6.90;;;;;;;;;;6155133;23;20017;-75
2023/04/19 20:45:27;;;;;;;10.32;7.03;;;;;;;;;;6154767;23;20096;-73
2023/04/19 20:47:54;;;;;;;13.60;6.63;;;;;;;;;;6155314;23;20335;-73
2023/04/19 20:50:20;;;;;;;9.40;6.70;;;;;;;;;;6153099;23;20013;-74
2023/04/19 20:52:49;;;;;;;14.82;5.90;;;;;;;;;;6154037;23;20096;-74
2023/04/19 20:55:15;;;;;;;13.45;7.07;;;;;;;;;;6126976;23;20014;-73
2023/04/19 20:57:41;;;;;;;8.10;6.45;;;;;;;;;;6153867;23;20017;-76
2023/04/19 21:00:08;;;;;;;10.60;7.03;;;;;;;;;;6127317;23;20103;-75
2023/04/19 21:02:35;;;;;;;9.93;6.38;;;;;;;;;;6127003;23;20342;-73
2023/04/19 21:05:01;;;;;;;16.20;6.45;;;;;;;;;;6104861;23;20009;-73
2023/04/19 21:07:30;;;;;;;8.55;6.47;;;;;;;;;;6155272;23;20025;-73
2023/04/19 21:09:56;;;;;;;15.98;6.25;;;;;;;;;;6156500;23;20492;-73
2023/04/19 21:12:22;;;;;;;12.38;7.28;;;;;;;;;;6127673;23;20013;-73
2023/04/19 21:14:51;;;;;;;9.82;6.85;;;;;;;;;;6167325;23;20009;-72
2023/04/19 21:17:17;;;;;;;8.35;6.22;;;;;;;;;;6147277;23;20017;-72
2023/04/19 21:19:43;;;;;;;17.25;6.72;;;;;;;;;;6173726;23;20010;-72
2023/04/19 21:22:09;;;;;;;7.03;6.25;;;;;;;;;;6173077;23;20021;-72
2023/04/19 21:24:35;;;;;;;11.32;6.50;;;;;;;;;;6167544;23;20017;-72
2023/04/19 21:27:01;;;;;;;6.82;5.95;;;;;;;;;;6161684;23;20052;-72
2023/04/19 21:29:27;;;;;;;15.43;6.47;;;;;;;;;;6153935;23;20040;-72
2023/04/19 21:31:53;;;;;;;14.98;6.40;;;;;;;;;;6127549;23;20036;-72
2023/04/19 21:34:19;;;;;;;12.98;6.97;;;;;;;;;;6152936;23;20405;-74
2023/04/19 21:36:45;;;;;;;10.45;6.28;;;;;;;;;;6126766;23;20049;-72
2023/04/19 21:39:11;;;;;;;8.55;6.10;;;;;;;;;;6152481;23;20017;-72
2023/04/19 21:41:37;;;;;;;8.73;6.57;;;;;;;;;;6152723;23;20013;-73
2023/04/19 21:44:03;;;;;;;11.48;6.45;;;;;;;;;;6150949;23;20027;-72
2023/04/19 21:46:29;;;;;;;17.52;6.75;;;;;;;;;;6126338;23;20009;-73
2023/04/19 21:48:55;;;;;;;7.85;6.57;;;;;;;;;;6153653;23;20457;-73
2023/04/19 21:51:21;;;;;;;7.70;6.53;;;;;;;;;;6152914;23;20017;-73
2023/04/19 21:53:47;;;;;;;11.50;7.20;;;;;;;;;;6152751;23;20164;-73
2023/04/19 21:56:14;;;;;;;12.13;7.10;;;;;;;;;;6126388;23;20017;-73
2023/04/19 21:58:40;;;;;;;15.02;7.50;;;;;;;;;;6126601;23;20048;-73
2023/04/19 22:01:06;;;;;;;10.13;6.65;;;;;;;;;;6152408;23;20068;-72
2023/04/19 22:03:32;;;;;;;12.20;7.13;;;;;;;;;;6152221;23;20462;-72
2023/04/19 22:06:00;;;;;;;14.90;7.18;;;;;;;;;;6126199;23;20009;-73
2023/04/19 22:08:27;;;;;;;7.75;6.45;;;;;;;;;;6152283;23;20405;-72
2023/04/19 22:10:58;;;;;;;10.18;7.03;;;;;;;;;;6152060;23;20040;-73
2023/04/19 22:13:24;;;;;;;;;;;;;;;;;;6152786;23;20014;-71
2023/04/19 22:15:51;;;;;;;13.32;6.32;;;;;;;;;;6152249;23;19908;-73
2023/04/19 22:18:17;;;;;;;10.82;7.07;;;;;;;;;;6152212;23;20017;-72
2023/04/19 22:20:43;;;;;;;9.00;7.85;;;;;;;;;;6101819;23;20017;-72
2023/04/19 22:23:09;;;;;;;9.55;7.00;;;;;;;;;;6152059;23;20048;-72
2023/04/19 22:25:35;;;;;;;11.95;6.55;;;;;;;;;;6152186;23;20028;-72
2023/04/19 22:28:01;;;;;;;7.88;6.57;;;;;;;;;;6101927;23;20536;-72
2023/04/19 22:30:27;;;;;;;10.20;6.20;;;;;;;;;;6151970;23;20462;-72
2023/04/19 22:32:53;;;;;;;13.27;6.28;;;;;;;;;;6125922;23;20013;-72
2023/04/19 22:35:20;;;;;;;7.50;6.28;;;;;;;;;;6152036;23;20350;-73
2023/04/19 22:37:46;;;;;;;7.50;6.20;;;;;;;;;;6152454;23;20017;-73
2023/04/19 22:40:12;;;;;;;9.93;6.07;;;;;;;;;;6152208;23;20085;-73
2023/04/19 22:42:38;;;;;;;10.43;5.80;;;;;;;;;;6103727;23;20029;-73
2023/04/19 22:45:05;;;;;;;9.77;5.90;;;;;;;;;;6154086;23;20017;-72
2023/04/19 22:47:31;;;;;;;11.93;5.40;;;;;;;;;;6127468;23;20027;-71
2023/04/19 22:49:58;;;;;;;8.18;6.22;;;;;;;;;;6154272;23;20009;-72
2023/04/19 22:52:26;;;;;;;8.63;6.55;;;;;;;;;;6154126;23;20048;-73
2023/04/19 22:54:52;;;;;;;7.82;5.65;;;;;;;;;;6130144;23;20013;-73
2023/04/19 22:57:18;;;;;;;8.50;6.03;;;;;;;;;;6128512;23;20051;-73
2023/04/19 22:59:44;;;;;;;7.93;6.25;;;;;;;;;;6128054;23;20017;-72
2023/04/19 23:02:10;;;;;;;9.55;6.00;;;;;;;;;;6127936;23;20335;-73
2023/04/19 23:04:36;;;;;;;13.07;6.72;;;;;;;;;;6154736;23;20171;-73
2023/04/19 23:07:03;;;;;;;7.07;5.90;;;;;;;;;;6158781;23;20013;-72
2023/04/19 23:09:29;;;;;;;10.98;6.88;;;;;;;;;;6159283;23;20021;-72
2023/04/19 23:11:57;;;;;;;10.55;5.45;;;;;;;;;;6131072;23;20060;-72
2023/04/19 23:14:23;;;;;;;8.75;6.47;;;;;;;;;;6154384;23;20570;-72
2023/04/19 23:16:53;;;;;;;10.98;6.35;;;;;;;;;;6152331;23;20010;-72
2023/04/19 23:19:21;;;;;;;7.60;6.07;;;;;;;;;;6153683;23;20119;-70
2023/04/19 23:21:48;;;;;;;8.85;5.60;;;;;;;;;;6153643;23;20461;-72
2023/04/19 23:24:14;;;;;;;14.10;6.20;;;;;;;;;;6153813;23;20017;-73
2023/04/19 23:26:40;;;;;;;12.40;6.07;;;;;;;;;;6153450;23;20010;-72
2023/04/19 23:29:06;;;;;;;5.97;5.38;;;;;;;;;;6127813;23;20037;-71
2023/04/19 23:31:32;;;;;;;9.52;5.88;;;;;;;;;;6127580;23;20461;-72
2023/04/19 23:33:58;;;;;;;7.38;6.00;;;;;;;;;;6128222;23;20013;-72
2023/04/19 23:36:25;;;;;;;9.38;5.65;;;;;;;;;;6153395;23;20040;-73
2023/04/19 23:38:51;;;;;;;8.90;5.93;;;;;;;;;;6127458;23;20409;-72
2023/04/19 23:41:16;;;;;;;10.18;6.25;;;;;;;;;;6079517;23;20013;-71
2023/04/19 23:43:44;;;;;;;17.45;7.88;;;;;;;;;;6153401;23;20017;-73
2023/04/19 23:46:10;;;;;;;20.35;8.43;;;;;;;;;;6153550;23;20010;-72
2023/04/19 23:48:36;;;;;;;13.48;7.30;;;;;;;;;;6153452;23;20041;-73
2023/04/19 23:51:02;;;;;;;15.32;7.93;;;;;;;;;;6127292;23;20036;-73
2023/04/19 23:53:28;;;;;;;14.13;7.95;;;;;;;;;;6153048;23;20016;-73
2023/04/19 23:55:54;;;;;;;17.27;7.90;;;;;;;;;;6153801;23;20025;-72
2023/04/19 23:58:21;;;;;;;11.80;7.32;;;;;;;;;;6153324;23;20017;-72
